Time;durP1;ratioP1;P1;durP2;ratioP2;P2;SDS_P1;SDS_P2;PMS_P1;PMS_P2;Temp;Humidity;BMP_temperature;BMP_pressure;BME280_temperature;BME280_humidity;BME280_pressure;Samples;Min_cycle;Max_cycle;Signal;HPM_P1;HPM_P2
2022/09/06 00:00:52;;;;;;;;;;;;;;;23.12;46.78;100156.38;10263752;28;19925;-73
2022/09/06 00:05:53;;;;;;;;;;;;;;;23.06;46.64;100159.88;10261941;28;19922;-73
2022/09/06 00:10:56;;;;;;;;;;;;;;;22.98;46.62;100158.22;10265823;28;19930;-71
2022/09/06 00:16:10;;;;;;;;;;;;;;;22.95;47.01;100159.47;10263875;28;20304;-73
2022/09/06 00:21:14;;;;;;;;;;;;;;;22.95;47.00;100153.19;10271890;28;19944;-71
2022/09/06 00:26:15;;;;;;;;;;;;;;;22.91;46.83;100147.34;10273889;28;19926;-73
2022/09/06 00:31:18;;;;;;;;;;;;;;;22.90;46.55;100159.25;10270665;28;19932;-73
2022/09/06 00:36:20;;;;;;;;;;;;;;;22.89;47.11;100156.75;10274299;28;20500;-72
2022/09/06 00:41:21;;;;;;;;;;;;;;;22.86;47.17;100143.59;10263403;28;19925;-71
2022/09/06 00:46:24;;;;;;;;;;;;;;;22.83;47.05;100144.00;10274030;28;20334;-73
2022/09/06 00:51:27;;;;;;;;;;;;;;;22.83;47.42;100150.25;10277561;28;19921;-72
2022/09/06 00:56:29;;;;;;;;;;;;;;;22.82;46.87;100154.03;10274989;28;19922;-72
2022/09/06 01:01:31;;;;;;;;;;;;;;;22.81;46.77;100159.66;10266821;28;20025;-72
2022/09/06 01:06:39;;;;;;;;;;;;;;;22.84;47.36;100164.69;10272287;28;19934;-72
2022/09/06 01:11:59;;;;;;;;;;;;;;;22.76;46.63;100154.84;10264612;28;20912;-71
2022/09/06 01:17:05;;;;;;;;;;;;;;;22.70;46.89;100152.94;10273279;28;20377;-71
2022/09/06 01:22:21;;;;;;;;;;;;;;;22.69;46.69;100154.84;10279021;28;20272;-72
2022/09/06 01:27:29;;;;;;;;;;;;;;;22.70;48.10;100166.50;10280732;28;19932;-73
2022/09/06 01:32:53;;;;;;;;;;;;;;;22.73;47.31;100166.94;10327880;28;19922;-70
2022/09/06 01:37:55;;;;;;;;;;;;;;;22.71;47.12;100170.91;10265519;28;19936;-69
2022/09/06 01:42:57;;;;;;;;;;;;;;;22.74;47.34;100167.78;10260114;28;19929;-71
2022/09/06 01:48:07;;;;;;;;;;;;;;;22.74;47.17;100167.78;10268304;28;20064;-74
2022/09/06 01:53:27;;;;;;;;;;;;;;;22.71;48.10;100162.75;10286832;28;19930;-73
2022/09/06 01:58:47;;;;;;;;;;;;;;;22.67;46.92;100156.06;10267839;28;19937;-72
2022/09/06 02:04:00;;;;;;;;;;;;;;;22.66;46.82;100166.09;10287635;28;20105;-73
2022/09/06 02:09:02;;;;;;;;;;;;;;;22.67;45.93;100292.56;10271311;28;19934;-72
2022/09/06 02:14:06;;;;;;;;;;;;;;;22.22;47.43;100243.31;10268647;28;19948;-70
2022/09/06 02:19:10;;;;;;;;;;;;;;;22.30;47.58;100280.25;10270854;28;19926;-72
2022/09/06 02:24:15;;;;;;;;;;;;;;;22.33;48.43;100259.00;10269237;28;20393;-73
2022/09/06 02:29:17;;;;;;;;;;;;;;;22.45;48.21;100245.72;10268554;28;20408;-72
2022/09/06 02:34:18;;;;;;;;;;;;;;;22.51;47.88;100249.50;10268801;28;20024;-71
2022/09/06 02:39:20;;;;;;;;;;;;;;;22.50;46.64;100245.94;10267277;28;19936;-73
2022/09/06 02:44:21;;;;;;;;;;;;;;;22.50;46.70;100235.09;10270614;28;20146;-71
2022/09/06 02:49:22;;;;;;;;;;;;;;;22.53;47.89;100232.00;10253360;28;20343;-71
2022/09/06 02:54:24;;;;;;;;;;;;;;;22.59;47.57;100209.50;10250426;28;20334;-73
2022/09/06 02:59:25;;;;;;;;;;;;;;;22.60;47.98;100184.03;10256176;28;19932;-71
2022/09/06 03:04:26;;;;;;;;;;;;;;;22.64;47.10;100186.31;10252166;28;19930;-72
2022/09/06 03:09:28;;;;;;;;;;;;;;;22.64;47.10;100200.75;10283690;28;20469;-73
2022/09/06 03:14:29;;;;;;;;;;;;;;;22.67;49.13;100194.06;10266029;28;20380;-71
2022/09/06 03:19:30;;;;;;;;;;;;;;;22.72;48.59;100180.72;10281865;28;20230;-72
2022/09/06 03:24:32;;;;;;;;;;;;;;;22.78;48.54;100180.72;10267589;28;20328;-74
2022/09/06 03:29:33;;;;;;;;;;;;;;;22.80;49.00;100177.81;10268060;28;19932;-71
2022/09/06 03:34:34;;;;;;;;;;;;;;;22.77;49.94;100153.81;10265310;28;19925;-70
2022/09/06 03:39:36;;;;;;;;;;;;;;;22.80;50.02;100130.84;10268314;28;20174;-72
2022/09/06 03:44:37;;;;;;;;;;;;;;;22.78;50.75;100106.63;10267200;28;20304;-72
2022/09/06 03:49:38;;;;;;;;;;;;;;;22.43;51.76;100144.75;10265576;28;19947;-71
2022/09/06 03:54:40;;;;;;;;;;;;;;;22.31;51.57;100127.34;10279274;28;20308;-72
2022/09/06 03:59:41;;;;;;;;;;;;;;;22.42;52.72;100116.78;10276815;28;20207;-70
2022/09/06 04:04:42;;;;;;;;;;;;;;;22.45;51.53;100106.59;10292631;28;20195;-71
2022/09/06 04:09:44;;;;;;;;;;;;;;;22.36;51.66;100114.06;10282507;28;19925;-70
2022/09/06 04:14:45;;;;;;;;;;;;;;;22.09;51.51;100122.09;10280619;28;20429;-72
2022/09/06 04:19:46;;;;;;;;;;;;;;;22.02;51.55;100126.63;10275274;28;20364;-74
2022/09/06 04:24:47;;;;;;;;;;;;;;;21.84;51.33;100144.28;10280882;28;19929;-71
2022/09/06 04:29:49;;;;;;;;;;;;;;;21.76;51.51;100139.00;10279452;28;19956;-73
2022/09/06 04:34:50;;;;;;;;;;;;;;;21.77;51.41;100140.69;10267034;28;20187;-69
2022/09/06 04:39:51;;;;;;;;;;;;;;;21.74;51.76;100138.38;10276177;28;20524;-71
2022/09/06 04:44:52;;;;;;;;;;;;;;;21.71;51.68;100152.34;10282527;28;19926;-69
2022/09/06 04:49:54;;;;;;;;;;;;;;;21.64;51.95;100146.84;10281581;28;20002;-72
2022/09/06 04:54:55;;;;;;;;;;;;;;;21.60;52.28;100151.00;10273458;28;19931;-73
2022/09/06 04:59:56;;;;;;;;;;;;;;;21.50;52.56;100148.66;10257575;28;19976;-71
2022/09/06 05:04:57;;;;;;;;;;;;;;;21.44;52.95;100146.69;10257856;28;19926;-73
2022/09/06 05:09:59;;;;;;;;;;;;;;;21.48;53.28;100152.56;10260508;28;19930;-72
2022/09/06 05:15:00;;;;;;;;;;;;;;;21.44;53.47;100160.25;10265497;28;20406;-75
2022/09/06 05:20:01;;;;;;;;;;;;;;;21.40;53.46;100155.41;10266132;28;19956;-73
2022/09/06 05:25:03;;;;;;;;;;;;;;;21.41;53.69;100151.66;10265786;28;20525;-73
2022/09/06 05:30:04;;;;;;;;;;;;;;;21.42;53.72;100165.00;10268714;28;20456;-72
2022/09/06 05:35:06;;;;;;;;;;;;;;;21.41;53.53;100167.91;10260246;28;19931;-71
2022/09/06 05:40:07;;;;;;;;;;;;;;;21.44;54.21;100168.38;10256230;28;20039;-75
2022/09/06 05:45:09;;;;;;;;;;;;;;;21.47;54.19;100189.63;10267558;28;20071;-74
2022/09/06 05:50:10;;;;;;;;;;;;;;;21.49;54.22;100201.09;10267629;28;19932;-74
2022/09/06 05:55:12;;;;;;;;;;;;;;;21.53;54.36;100201.59;10266845;28;19922;-73
2022/09/06 06:00:13;;;;;;;;;;;;;;;21.66;54.22;100214.38;10253509;28;19932;-74
2022/09/06 06:05:15;;;;;;;;;;;;;;;21.79;54.66;100214.47;10265605;28;20561;-74
2022/09/06 06:10:16;;;;;;;;;;;;;;;21.95;54.24;100213.31;10265929;28;19971;-74
2022/09/06 06:24:02;;;;;;;10.88;3.03;;;;;;;22.25;52.80;100224.75;10364391;27;20917;-60
2022/09/06 06:30:54;;;;;;;4.20;2.80;;;;;;;22.32;54.25;100223.97;10352105;27;20923;-60
2022/09/06 06:36:01;;;;;;;7.80;3.15;;;;;;;22.49;53.04;100230.72;10305898;28;20054;-58
2022/09/06 06:41:04;;;;;;;8.35;3.00;;;;;;;22.48;51.79;100234.47;10317830;28;20350;-58
2022/09/06 06:46:13;;;;;;;5.75;2.97;;;;;;;22.50;52.73;100235.09;10320103;28;20124;-60
2022/09/06 06:51:19;;;;;;;6.03;2.47;;;;;;;22.46;53.06;100228.44;10319401;28;20060;-59
2022/09/06 06:56:32;;;;;;;4.55;3.10;;;;;;;22.35;52.01;100229.84;10316910;28;20405;-69
2022/09/06 07:01:35;;;;;;;5.63;3.08;;;;;;;22.24;52.51;100231.19;10312951;28;20060;-69
2022/09/06 07:06:54;;;;;;;4.97;3.10;;;;;;;22.22;52.66;100241.41;10311130;28;20136;-70
2022/09/06 07:12:15;;;;;;;6.32;2.88;;;;;;;22.66;51.52;100235.81;10309863;28;20046;-68
2022/09/06 07:17:16;;;;;;;5.97;2.88;;;;;;;22.64;52.23;100237.84;10315442;28;20141;-69
2022/09/06 07:22:18;;;;;;;7.18;3.45;;;;;;;22.90;50.97;100246.09;10312895;28;20046;-69
2022/09/06 07:27:19;;;;;;;4.35;2.50;;;;;;;23.19;51.08;100252.22;10295614;28;20061;-70
2022/09/06 07:32:40;;;;;;;5.40;2.20;;;;;;;23.38;50.32;100250.59;10311556;28;20404;-69
2022/09/06 07:37:42;;;;;;;2.35;1.85;;;;;;;23.58;50.56;100255.19;10313483;28;20192;-66
2022/09/06 07:42:43;;;;;;;2.80;1.92;;;;;;;23.65;50.51;100262.28;10285524;28;20546;-67
2022/09/06 07:47:52;;;;;;;4.75;1.63;;;;;;;23.51;50.43;100252.50;10282350;28;20480;-66
2022/09/06 07:53:04;;;;;;;3.55;1.55;;;;;;;23.52;50.66;100262.28;10293845;28;20266;-65
2022/09/06 07:58:06;;;;;;;3.28;1.67;;;;;;;23.90;49.76;100261.69;10279650;28;20058;-65
2022/09/06 08:03:08;;;;;;;5.60;1.95;;;;;;;23.96;49.85;100262.72;10275692;28;20460;-65
2022/09/06 08:08:09;;;;;;;3.85;1.35;;;;;;;24.18;49.98;100256.00;10279598;28;20085;-65
2022/09/06 08:13:30;;;;;;;5.47;2.28;;;;;;;24.59;48.56;100258.59;10287871;28;20060;-65
2022/09/06 08:18:33;;;;;;;3.55;1.63;;;;;;;24.63;48.61;100251.66;10282305;28;20054;-63
2022/09/06 08:23:35;;;;;;;3.72;1.90;;;;;;;24.92;48.22;100247.56;10272804;28;20572;-65
2022/09/06 08:28:36;;;;;;;4.28;1.60;;;;;;;25.14;47.75;100247.19;10285262;28;20544;-65
2022/09/06 08:33:39;;;;;;;3.45;1.77;;;;;;;25.30;46.74;100257.59;10280256;28;20060;-65
2022/09/06 08:38:40;;;;;;;4.80;1.88;;;;;;;25.57;45.82;100258.22;10280945;28;20073;-65
2022/09/06 08:43:53;;;;;;;3.75;1.50;;;;;;;25.56;46.59;100263.91;10271389;28;20524;-64
2022/09/06 08:49:14;;;;;;;2.17;1.53;;;;;;;26.18;44.98;100252.22;10285239;28;21172;-65
2022/09/06 08:54:46;;;;;;;3.95;1.65;;;;;;;26.48;44.12;100235.09;10281851;28;20050;-64
2022/09/06 08:59:51;;;;;;;2.75;1.27;;;;;;;26.38;44.36;100236.47;10280949;28;20128;-64
2022/09/06 09:05:03;;;;;;;2.05;1.52;;;;;;;26.75;42.67;100225.53;10269660;28;20296;-65
2022/09/06 09:10:13;;;;;;;5.47;1.92;;;;;;;27.07;43.83;100225.28;10272347;28;20053;-65
2022/09/06 09:15:17;;;;;;;1.85;1.33;;;;;;;27.66;41.91;100230.03;10278604;28;20084;-65
2022/09/06 09:20:20;;;;;;;2.42;1.08;;;;;;;27.71;42.76;100221.09;10272766;28;20180;-65
2022/09/06 09:25:22;;;;;;;1.55;1.08;;;;;;;28.03;41.07;100213.41;10275740;28;20081;-65
2022/09/06 09:30:26;;;;;;;2.28;1.30;;;;;;;28.26;41.03;100209.75;10279007;28;20077;-64
2022/09/06 09:35:48;;;;;;;1.40;0.98;;;;;;;28.74;40.31;100203.06;10271746;28;20054;-64
2022/09/06 09:40:56;;;;;;;3.47;1.02;;;;;;;29.03;40.46;100210.44;10270510;28;20060;-65
2022/09/06 09:46:12;;;;;;;3.67;1.40;;;;;;;29.43;38.15;100187.56;10278729;28;20731;-65
2022/09/06 09:51:18;;;;;;;4.95;1.10;;;;;;;29.53;37.82;100184.97;10253786;28;20050;-65
2022/09/06 09:56:34;;;;;;;2.85;1.23;;;;;;;29.62;37.98;100179.91;10279118;28;20519;-69
2022/09/06 10:01:37;;;;;;;2.22;1.17;;;;;;;29.92;37.51;100178.69;10279739;28;20091;-66
2022/09/06 10:06:38;;;;;;;2.60;1.20;;;;;;;30.00;36.81;100180.19;10267901;28;20061;-66
2022/09/06 10:12:00;;;;;;;2.27;1.10;;;;;;;30.54;36.05;100163.81;10276299;28;20054;-66
2022/09/06 10:17:01;;;;;;;;;;;;;;;33.71;30.99;100167.41;10280502;28;20430;-66
2022/09/06 10:22:19;;;;;;;2.33;1.02;;;;;;;36.95;26.45;100153.41;10275672;28;19922;-66
2022/09/06 10:27:27;;;;;;;1.05;0.80;;;;;;;37.50;25.22;100151.88;10269802;28;20054;-68
2022/09/06 10:32:36;;;;;;;3.88;0.95;;;;;;;35.67;26.91;100155.09;10290268;28;20061;-68
2022/09/06 10:37:47;;;;;;;2.95;1.20;;;;;;;34.58;28.57;100140.53;10291604;28;20679;-68
2022/09/06 10:42:55;;;;;;;1.83;0.95;;;;;;;35.12;27.80;100139.56;10265577;28;20064;-68
2022/09/06 10:48:39;;;;;;;4.65;0.90;;;;;;;39.82;21.93;100141.75;10274683;28;20308;-69
2022/09/06 10:53:54;;;;;;;1.70;0.93;;;;;;;42.96;19.64;100143.88;10326177;28;20453;-68
2022/09/06 10:59:13;;;;;;;4.50;0.93;;;;;;;44.67;17.19;100130.19;10291958;28;20433;-68
2022/09/06 11:04:37;;;;;;;3.13;0.90;;;;;;;45.78;15.14;100123.84;10273910;28;20462;-69
2022/09/06 11:10:06;;;;;;;1.17;0.57;;;;;;;46.09;15.67;100115.69;10273560;28;20238;-69
2022/09/06 11:15:12;;;;;;;1.40;0.50;;;;;;;46.61;14.76;100120.06;10287082;28;20065;-69
2022/09/06 11:20:17;;;;;;;2.95;0.70;;;;;;;45.83;14.90;100117.16;10289194;28;20052;-69
2022/09/06 11:25:35;;;;;;;2.08;0.70;;;;;;;47.84;14.37;100105.28;10280988;28;20122;-69
2022/09/06 11:30:45;;;;;;;1.10;0.70;;;;;;;48.56;13.80;100097.78;10274281;28;20042;-69
2022/09/06 11:35:47;;;;;;;1.10;0.60;;;;;;;49.84;12.65;100091.59;10294852;28;20316;-69
2022/09/06 11:40:58;;;;;;;3.13;0.80;;;;;;;50.61;11.63;100081.44;10269819;28;20104;-70
2022/09/06 11:45:59;;;;;;;1.95;0.68;;;;;;;50.10;11.51;100075.56;10300328;28;20144;-67
2022/09/06 11:51:09;;;;;;;1.33;0.47;;;;;;;50.44;11.38;100069.66;10294208;28;20057;-69
2022/09/06 11:56:26;;;;;;;2.53;0.47;;;;;;;50.75;11.52;100068.13;10302399;28;20065;-69
2022/09/06 12:01:27;;;;;;;0.50;0.40;;;;;;;51.53;11.16;100065.69;10289294;28;20049;-69
2022/09/06 12:06:34;;;;;;;0.88;0.43;;;;;;;51.42;10.81;100057.19;10281549;28;20524;-69
2022/09/06 12:11:42;;;;;;;3.65;0.50;;;;;;;50.50;11.84;100058.75;10282342;28;20119;-69
2022/09/06 12:16:56;;;;;;;2.33;0.60;;;;;;;50.74;11.39;100062.84;10272936;28;20050;-69
2022/09/06 12:21:57;;;;;;;2.33;0.60;;;;;;;50.27;11.16;100051.41;10276044;28;20053;-67
2022/09/06 12:27:14;;;;;;;2.38;0.52;;;;;;;50.47;11.64;100054.69;10287574;28;20054;-67
2022/09/06 12:32:22;;;;;;;1.00;0.30;;;;;;;50.08;11.83;100046.88;10285689;28;20634;-67
2022/09/06 12:37:36;;;;;;;1.58;0.82;;;;;;;49.63;11.45;100035.75;10275677;28;20054;-67
2022/09/06 12:42:38;;;;;;;3.03;0.57;;;;;;;49.03;12.17;100036.09;10290940;28;20617;-66
2022/09/06 12:47:39;;;;;;;3.78;0.70;;;;;;;47.82;12.76;100020.25;10283809;28;20049;-68
2022/09/06 12:52:50;;;;;;;0.95;0.50;;;;;;;43.66;16.02;100019.78;10284314;28;20288;-67
2022/09/06 12:57:55;;;;;;;2.10;0.77;;;;;;;41.67;18.24;100024.00;10308313;28;20558;-67
2022/09/06 13:03:11;;;;;;;6.32;0.90;;;;;;;40.24;18.63;100008.38;10293315;28;20074;-67
2022/09/06 13:08:17;;;;;;;1.85;0.60;;;;;;;39.54;21.15;99993.56;10252200;28;20135;-67
2022/09/06 13:13:22;;;;;;;3.60;0.90;;;;;;;39.10;20.72;99992.59;10272362;28;20112;-67
2022/09/06 13:18:32;;;;;;;2.40;0.73;;;;;;;38.00;21.46;99984.53;10264868;28;20054;-68
2022/09/06 13:23:48;;;;;;;3.42;1.00;;;;;;;37.75;23.30;99977.63;10268981;28;20046;-68
2022/09/06 13:28:49;;;;;;;4.88;1.48;;;;;;;37.52;23.16;99971.16;10278938;28;20192;-67
2022/09/06 13:33:56;;;;;;;1.52;0.88;;;;;;;37.06;22.73;99984.03;10286043;28;20625;-67
2022/09/06 13:38:58;;;;;;;1.42;0.90;;;;;;;36.15;23.04;99980.56;10271847;28;20841;-68
2022/09/06 13:44:17;;;;;;;2.40;1.00;;;;;;;35.49;24.36;99974.88;10284370;28;20057;-67
2022/09/06 13:49:18;;;;;;;1.98;0.90;;;;;;;35.48;24.83;99967.69;10268945;28;20364;-67
2022/09/06 13:54:21;;;;;;;6.75;1.27;;;;;;;34.88;25.13;99965.34;10278425;28;20141;-67
2022/09/06 13:59:24;;;;;;;1.85;0.80;;;;;;;34.49;25.06;99967.06;10276736;28;20505;-66
2022/09/06 14:04:25;;;;;;;2.92;1.00;;;;;;;34.26;25.76;99956.78;10289016;28;20054;-67
2022/09/06 14:09:28;;;;;;;3.47;1.02;;;;;;;34.15;25.56;99945.78;10246303;28;21330;-67
2022/09/06 14:14:29;;;;;;;2.85;1.00;;;;;;;33.94;26.52;99958.09;10276555;28;20049;-67
2022/09/06 14:19:31;;;;;;;2.03;1.17;;;;;;;33.50;26.69;99950.63;10286847;28;20135;-68
2022/09/06 14:24:32;;;;;;;3.10;1.10;;;;;;;33.35;27.27;99954.28;10263420;28;20075;-67
2022/09/06 14:29:34;;;;;;;1.42;1.13;;;;;;;33.05;27.64;99951.31;10270906;28;20057;-66
2022/09/06 14:34:36;;;;;;;4.63;1.50;;;;;;;32.41;28.15;99942.63;10267115;28;20058;-66
2022/09/06 14:39:37;;;;;;;;;;;;;;;32.34;28.41;99931.03;10277890;28;20140;-67
2022/09/06 14:44:39;;;;;;;4.07;1.80;;;;;;;32.20;27.84;99936.28;10281304;28;20377;-68
2022/09/06 14:49:40;;;;;;;;;;;;;;;32.02;28.42;99929.38;10281182;28;20339;-66
2022/09/06 14:54:41;;;;;;;2.43;1.20;;;;;;;31.78;29.28;99918.03;10295719;28;20182;-65
2022/09/06 14:59:43;;;;;;;2.72;1.30;;;;;;;31.71;29.40;99899.06;10286387;28;20383;-66
2022/09/06 15:04:45;;;;;;;3.60;1.58;;;;;;;31.45;29.78;99902.81;10282769;28;20042;-65
2022/09/06 15:09:46;;;;;;;;;;;;;;;31.43;29.83;99899.53;10288858;28;20267;-66
2022/09/06 15:14:47;;;;;;;3.03;1.50;;;;;;;31.27;30.19;99891.25;10268071;28;20016;-66
2022/09/06 15:19:49;;;;;;;2.83;0.98;;;;;;;31.10;30.69;99885.94;10280988;28;20056;-66
2022/09/06 15:24:50;;;;;;;3.83;1.38;;;;;;;30.95;30.68;99883.09;10272232;28;20074;-66
2022/09/06 15:29:52;;;;;;;2.63;1.23;;;;;;;30.68;31.08;99890.38;10265480;28;20050;-66
2022/09/06 15:34:53;;;;;;;2.65;2.03;;;;;;;30.56;31.17;99889.75;10263260;28;20469;-66
2022/09/06 15:39:55;;;;;;;3.72;1.77;;;;;;;30.59;31.14;99886.47;10276252;28;20050;-66
2022/09/06 15:44:56;;;;;;;2.45;1.38;;;;;;;30.56;31.37;99900.75;10270807;28;20530;-66
2022/09/06 15:49:58;;;;;;;2.58;1.30;;;;;;;30.47;31.66;99894.09;10282454;28;20057;-66
2022/09/06 16:00:22;;;;;;;5.32;1.48;;;;;;;30.13;32.19;99891.59;10271952;28;20506;-66
2022/09/06 16:05:23;;;;;;;4.05;1.92;;;;;;;30.06;32.54;99902.00;10259202;28;20050;-67
2022/09/06 16:10:45;;;;;;;4.10;1.80;;;;;;;29.86;32.75;99900.72;10245701;28;20417;-66
2022/09/06 16:15:58;;;;;;;4.32;1.73;;;;;;;29.76;33.38;99895.13;10263191;28;21396;-67
2022/09/06 16:21:07;;;;;;;4.25;1.55;;;;;;;29.60;33.67;99914.13;10258474;28;20205;-67
2022/09/06 16:26:08;;;;;;;3.65;1.85;;;;;;;29.58;33.85;99912.75;10273569;28;20234;-66
2022/09/06 16:31:10;;;;;;;3.28;1.58;;;;;;;29.49;34.21;99917.88;10287277;28;20062;-66
2022/09/06 16:36:12;;;;;;;3.08;1.80;;;;;;;29.38;34.70;99927.03;10271851;28;20635;-67
2022/09/06 16:41:20;;;;;;;5.45;2.17;;;;;;;29.35;34.72;99922.09;10278936;28;20723;-67
2022/09/06 16:46:23;;;;;;;2.83;1.60;;;;;;;29.29;34.63;99909.41;10276627;28;20665;-67
2022/09/06 16:51:26;;;;;;;3.55;1.40;;;;;;;29.12;34.50;99901.22;10283320;28;20058;-66
2022/09/06 16:56:32;;;;;;;1.33;0.57;;;;;;;29.13;39.46;99916.59;10266740;28;20798;-62
2022/09/06 17:01:35;;;;;;;2.92;1.30;;;;;;;28.82;35.61;99941.66;10260663;28;20055;-62
2022/09/06 17:06:46;;;;;;;6.20;1.50;;;;;;;28.40;39.44;99969.44;10280645;28;20148;-62
2022/09/06 17:11:50;;;;;;;6.43;2.10;;;;;;;27.91;42.91;99980.03;10282587;28;20182;-62
2022/09/06 17:17:04;;;;;;;40.10;23.02;;;;;;;27.64;46.16;99999.78;10276776;28;20646;-62
2022/09/06 17:22:09;;;;;;;5.82;3.33;;;;;;;27.31;49.57;100018.47;10270544;28;20216;-62
2022/09/06 17:27:10;;;;;;;6.32;2.83;;;;;;;26.70;51.42;100017.91;10256797;28;20125;-60
2022/09/06 17:32:11;;;;;;;7.32;2.47;;;;;;;26.34;52.07;100027.06;10273529;28;20185;-61
2022/09/06 17:37:13;;;;;;;6.20;1.98;;;;;;;25.83;55.68;100060.03;10281132;28;20153;-60
2022/09/06 17:42:15;;;;;;;3.97;2.28;;;;;;;25.50;57.32;100068.59;10279464;28;20296;-60
2022/09/06 17:47:16;;;;;;;9.48;3.47;;;;;;;25.47;59.55;100055.44;10270611;28;20605;-60
2022/09/06 17:52:18;;;;;;;4.55;1.75;;;;;;;25.08;58.96;100050.13;10257106;28;20127;-60
2022/09/06 17:57:19;;;;;;;4.30;2.17;;;;;;;24.77;59.21;100061.91;10283183;28;20056;-60
2022/09/06 18:02:22;;;;;;;4.53;2.35;;;;;;;24.67;60.92;100068.69;10259919;28;20122;-60
2022/09/06 18:07:23;;;;;;;5.22;2.90;;;;;;;24.90;61.64;100066.44;10268563;28;20673;-60
2022/09/06 18:12:27;;;;;;;4.22;2.17;;;;;;;24.92;60.98;100069.75;10263277;28;20050;-61
2022/09/06 18:17:29;;;;;;;8.48;2.50;;;;;;;24.88;60.58;100074.81;10268750;23;20576;-60
2022/09/06 18:22:31;;;;;;;4.90;1.95;;;;;;;24.66;58.85;100039.81;10313750;28;20049;-58
2022/09/06 18:27:33;;;;;;;4.68;1.90;;;;;;;24.74;60.41;100035.16;10300298;28;20568;-59
2022/09/06 18:32:34;;;;;;;2.33;1.85;;;;;;;24.68;59.35;100025.97;10319870;28;20495;-59
2022/09/06 18:37:36;;;;;;;3.00;1.33;;;;;;;24.65;57.66;100001.94;10326774;28;20049;-60
2022/09/06 18:42:42;;;;;;;2.63;0.88;;;;;;;24.52;54.99;99956.63;10333195;28;20073;-59
2022/09/06 18:47:43;;;;;;;4.43;2.28;;;;;;;24.19;59.30;99968.59;10315947;28;20061;-59
2022/09/06 18:52:45;;;;;;;4.25;2.00;;;;;;;23.91;63.52;99934.47;10327613;28;20075;-59
2022/09/06 18:57:46;;;;;;;7.72;3.05;;;;;;;24.05;65.47;99916.19;10318378;28;20426;-59
2022/09/06 19:02:48;;;;;;;4.63;2.45;;;;;;;24.17;66.84;99887.22;10319689;28;20165;-59
2022/09/06 19:07:49;;;;;;;4.45;1.90;;;;;;;24.11;66.46;99890.84;10326119;28;20107;-59
2022/09/06 19:12:51;;;;;;;3.95;1.67;;;;;;;24.12;65.46;99880.78;10322775;28;20486;-60
2022/09/06 19:17:53;;;;;;;5.55;2.13;;;;;;;24.08;63.84;99890.44;10323404;28;20052;-59
2022/09/06 19:22:55;;;;;;;3.38;1.90;;;;;;;23.98;63.37;99897.19;10310457;28;20692;-59
2022/09/06 19:27:56;;;;;;;4.45;2.20;;;;;;;23.84;66.34;99884.75;10326184;28;20045;-58
2022/09/06 19:32:58;;;;;;;3.03;1.95;;;;;;;23.81;65.25;99869.69;10323321;28;20053;-59
2022/09/06 19:37:59;;;;;;;4.65;2.08;;;;;;;23.83;65.95;99872.19;10322620;28;20049;-60
2022/09/06 19:43:01;;;;;;;3.45;2.05;;;;;;;23.43;65.96;99883.31;10321738;28;20501;-59
2022/09/06 19:48:06;;;;;;;1.58;1.38;;;;;;;23.35;65.11;99864.56;10332316;28;20094;-60
2022/09/06 19:53:07;;;;;;;5.15;2.00;;;;;;;23.33;65.58;99858.50;10312577;28;20049;-59
2022/09/06 19:58:09;;;;;;;2.83;1.92;;;;;;;23.36;65.43;99853.47;10293469;28;20434;-59
2022/09/06 20:03:10;;;;;;;2.50;1.75;;;;;;;23.41;66.62;99852.81;10315296;28;20058;-58
2022/09/06 20:08:12;;;;;;;3.60;2.15;;;;;;;23.23;66.26;99856.25;10328668;28;20548;-59
2022/09/06 20:13:13;;;;;;;4.43;2.25;;;;;;;23.32;68.23;99865.81;10326115;28;20062;-59
2022/09/06 20:18:16;;;;;;;3.00;2.33;;;;;;;23.31;67.96;99869.56;10319848;28;20578;-58
2022/09/06 20:23:17;;;;;;;3.47;2.10;;;;;;;22.95;68.13;99871.81;10323850;28;20059;-63
2022/09/06 20:28:18;;;;;;;3.85;3.17;;;;;;;22.73;70.34;99865.81;10326339;28;20060;-65
2022/09/06 20:33:20;;;;;;;4.45;3.47;;;;;;;22.71;71.89;99869.78;10324439;28;20062;-65
2022/09/06 20:38:21;;;;;;;4.40;3.65;;;;;;;22.79;71.99;99869.56;10327984;28;20128;-63
2022/09/06 20:43:23;;;;;;;3.70;3.08;;;;;;;22.77;72.87;99874.34;10333398;28;20068;-65
2022/09/06 20:48:25;;;;;;;4.57;3.00;;;;;;;22.82;72.86;99882.69;10333982;28;20449;-63
2022/09/06 20:53:28;;;;;;;4.78;3.38;;;;;;;22.70;72.63;99879.81;10358169;28;20631;-65
2022/09/06 20:58:31;;;;;;;6.60;3.38;;;;;;;22.62;73.32;99876.47;10362400;28;20517;-66
2022/09/06 21:03:36;;;;;;;3.72;2.90;;;;;;;22.50;73.39;99885.25;10364352;28;20528;-64
2022/09/06 21:08:38;;;;;;;3.90;2.83;;;;;;;22.54;73.79;99891.91;10363589;28;20140;-66
2022/09/06 21:13:47;;;;;;;4.65;3.17;;;;;;;22.53;73.07;99884.00;10363042;28;20049;-64
2022/09/06 21:18:56;;;;;;;4.78;3.15;;;;;;;22.44;72.19;99890.69;10359322;28;20057;-65
2022/09/06 21:24:03;;;;;;;2.83;2.38;;;;;;;22.29;71.60;99890.88;10359602;28;20131;-64
2022/09/06 21:29:04;;;;;;;4.22;3.05;;;;;;;22.27;70.91;99887.56;10360021;28;20677;-64
2022/09/06 21:34:09;;;;;;;4.07;2.80;;;;;;;22.24;71.48;99889.63;10360314;28;20132;-64
2022/09/06 21:39:17;;;;;;;4.18;2.67;;;;;;;22.22;71.33;99886.28;10360316;28;20095;-63
2022/09/06 21:44:18;;;;;;;3.38;3.08;;;;;;;22.25;71.53;99869.59;10361331;28;20156;-65
2022/09/06 21:49:19;;;;;;;4.25;2.92;;;;;;;22.18;71.74;99876.91;10358961;28;20612;-64
2022/09/06 21:54:22;;;;;;;2.95;2.05;;;;;;;22.12;70.57;99877.75;10361692;28;20138;-65
2022/09/06 21:59:23;;;;;;;3.80;2.33;;;;;;;22.13;70.20;99879.41;10358356;28;20053;-64
2022/09/06 22:04:25;;;;;;;3.35;1.90;;;;;;;22.12;70.30;99876.91;10360534;28;20140;-65
2022/09/06 22:09:27;;;;;;;2.78;2.20;;;;;;;22.08;69.47;99873.78;10359137;28;20156;-64
2022/09/06 22:14:28;;;;;;;4.00;2.20;;;;;;;22.01;69.55;99867.53;10357862;28;20049;-64
2022/09/06 22:19:29;;;;;;;3.58;2.45;;;;;;;21.99;69.68;99877.72;10359138;28;20145;-64
2022/09/06 22:24:31;;;;;;;3.30;2.20;;;;;;;21.99;69.57;99858.75;10357955;28;20134;-65
2022/09/06 22:29:33;;;;;;;3.28;2.65;;;;;;;21.94;69.15;99864.81;10354994;28;20159;-64
2022/09/06 22:34:35;;;;;;;2.28;1.85;;;;;;;21.97;68.60;99858.16;10358655;28;20223;-64
2022/09/06 22:39:36;;;;;;;4.93;2.70;;;;;;;21.97;68.89;99864.41;10358440;28;20132;-64
2022/09/06 22:44:39;;;;;;;2.75;2.33;;;;;;;21.98;68.85;99854.38;10359663;28;20065;-65
2022/09/06 22:49:40;;;;;;;3.93;2.60;;;;;;;21.93;67.36;99848.75;10361020;28;20597;-64
2022/09/06 22:54:42;;;;;;;3.10;2.45;;;;;;;21.87;68.32;99845.84;10357730;28;20060;-65
2022/09/06 22:59:43;;;;;;;3.10;2.53;;;;;;;21.92;67.81;99838.97;10356668;28;20919;-63
2022/09/06 23:04:45;;;;;;;4.13;2.65;;;;;;;21.83;67.58;99831.06;10356370;28;20121;-64
2022/09/06 23:09:46;;;;;;;3.92;2.55;;;;;;;21.84;68.58;99805.63;10356384;28;20049;-62
2022/09/06 23:14:48;;;;;;;3.25;2.67;;;;;;;21.94;68.60;99817.94;10364281;28;20061;-63
2022/09/06 23:19:49;;;;;;;4.45;2.60;;;;;;;21.99;68.36;99837.94;10364903;28;20151;-63
2022/09/06 23:24:50;;;;;;;4.70;3.00;;;;;;;22.08;70.02;99843.97;10364758;28;20137;-70
2022/09/06 23:29:52;;;;;;;3.72;2.92;;;;;;;22.16;69.68;99865.44;10363998;28;20164;-62
2022/09/06 23:34:54;;;;;;;3.15;2.72;;;;;;;22.04;69.17;99869.84;10363376;28;20045;-62
2022/09/06 23:39:56;;;;;;;5.60;3.17;;;;;;;21.88;69.79;99850.22;10362778;28;20594;-64
2022/09/06 23:44:57;;;;;;;4.47;3.10;;;;;;;21.92;70.00;99849.78;10375828;28;20049;-63
2022/09/06 23:49:59;;;;;;;5.55;2.60;;;;;;;21.83;69.38;99847.31;10363525;28;20108;-63
2022/09/06 23:55:00;;;;;;;3.75;2.47;;;;;;;21.93;69.10;99852.28;10363341;28;20069;-63
